Time;durP1;ratioP1;P1;durP2;ratioP2;P2;SDS_P1;SDS_P2;PMS_P1;PMS_P2;Temp;Humidity;BMP_temperature;BMP_pressure;BME280_temperature;BME280_humidity;BME280_pressure;Samples;Min_cycle;Max_cycle;Signal;HPM_P1;HPM_P2
2021/06/25 00:00:34;;;;;;;3.03;2.83;;;;;24.60;100794.00;;;;2070997;28;20218;-55
2021/06/25 00:01:34;;;;;;;3.28;3.00;;;;;24.60;100798.00;;;;2062736;28;20478;-57
2021/06/25 00:02:35;;;;;;;2.80;2.60;;;;;24.60;100795.00;;;;2067278;28;20214;-55
2021/06/25 00:03:35;;;;;;;3.40;3.20;;;;;24.60;100793.00;;;;2071507;28;20237;-57
2021/06/25 00:04:35;;;;;;;3.20;3.00;;;;;24.60;100797.00;;;;2064446;28;20310;-59
2021/06/25 00:05:36;;;;;;;3.43;3.23;;;;;24.70;100791.00;;;;2066992;28;20218;-59
2021/06/25 00:06:36;;;;;;;2.90;2.70;;;;;24.70;100795.00;;;;2068147;28;20214;-59
2021/06/25 00:07:37;;;;;;;3.70;3.50;;;;;24.70;100792.00;;;;2071779;28;20730;-59
2021/06/25 00:08:37;;;;;;;3.50;3.30;;;;;24.70;100789.00;;;;2071377;28;20214;-57
2021/06/25 00:09:38;;;;;;;3.20;2.97;;;;;24.70;100785.00;;;;2066880;28;20219;-57
2021/06/25 00:10:38;;;;;;;3.07;2.87;;;;;24.70;100787.00;;;;2063453;28;20222;-58
2021/06/25 00:11:38;;;;;;;3.40;2.90;;;;;24.60;100793.00;;;;2064436;28;20306;-58
2021/06/25 00:12:39;;;;;;;3.10;2.90;;;;;24.60;100791.00;;;;2071515;28;20250;-57
2021/06/25 00:13:39;;;;;;;4.53;3.17;;;;;24.60;100789.00;;;;2068273;28;20338;-57
2021/06/25 00:14:39;;;;;;;3.27;3.07;;;;;24.60;100789.00;;;;2067694;28;20211;-57
2021/06/25 00:15:40;;;;;;;3.27;3.07;;;;;24.60;100789.00;;;;2065647;28;20215;-57
2021/06/25 00:16:40;;;;;;;2.80;2.60;;;;;24.70;100793.00;;;;2064997;28;20293;-57
2021/06/25 00:17:40;;;;;;;2.83;2.63;;;;;24.60;100792.00;;;;2063184;28;20226;-58
2021/06/25 00:18:41;;;;;;;2.90;2.70;;;;;24.70;100792.00;;;;2063531;28;20215;-59
2021/06/25 00:19:41;;;;;;;3.17;2.90;;;;;24.60;100790.00;;;;2062491;28;20364;-59
2021/06/25 00:20:42;;;;;;;3.23;3.03;;;;;24.70;100783.00;;;;2066584;28;20210;-56
2021/06/25 00:21:42;;;;;;;3.13;2.93;;;;;24.70;100787.00;;;;2063231;28;20298;-57
2021/06/25 00:22:42;;;;;;;2.93;2.77;;;;;24.60;100784.00;;;;2063525;28;20563;-57
2021/06/25 00:23:43;;;;;;;3.13;2.93;;;;;24.60;100779.00;;;;2063713;28;20290;-58
2021/06/25 00:24:43;;;;;;;3.20;3.00;;;;;24.70;100779.00;;;;2063150;28;20219;-57
2021/06/25 00:25:43;;;;;;;2.90;2.70;;;;;24.50;100777.00;;;;2063300;28;20214;-58
2021/06/25 00:26:44;;;;;;;2.90;2.70;;;;;24.60;100773.00;;;;2063857;28;20211;-57
2021/06/25 00:27:44;;;;;;;3.30;3.10;;;;;24.60;100779.00;;;;2063807;28;20239;-57
2021/06/25 00:28:45;;;;;;;3.13;2.93;;;;;24.70;100778.00;;;;2063777;28;20663;-54
2021/06/25 00:29:45;;;;;;;3.17;2.97;;;;;24.60;100775.00;;;;2063995;28;20414;-56
2021/06/25 00:30:45;;;;;;;3.70;3.40;;;;;24.60;100777.00;;;;2065748;28;20214;-57
2021/06/25 00:31:46;;;;;;;3.10;2.90;;;;;24.60;100768.00;;;;2071367;28;20230;-56
2021/06/25 00:32:46;;;;;;;2.90;2.70;;;;;24.60;100777.00;;;;2071743;28;20261;-57
2021/06/25 00:33:47;;;;;;;2.90;2.70;;;;;24.70;100776.00;;;;2071751;28;20248;-57
2021/06/25 00:34:47;;;;;;;3.30;3.10;;;;;24.60;100774.00;;;;2071703;28;20257;-57
2021/06/25 00:35:47;;;;;;;3.07;2.87;;;;;24.60;100775.00;;;;2071865;28;20226;-57
2021/06/25 00:36:48;;;;;;;2.83;2.63;;;;;24.60;100781.00;;;;2070504;28;20206;-58
2021/06/25 00:37:48;;;;;;;3.33;3.13;;;;;24.60;100778.00;;;;2063594;28;20223;-56
2021/06/25 00:38:48;;;;;;;3.20;3.00;;;;;24.60;100776.00;;;;2063732;28;20318;-57
2021/06/25 00:39:49;;;;;;;2.90;2.70;;;;;24.60;100784.00;;;;2070998;28;20305;-57
2021/06/25 00:40:49;;;;;;;3.00;2.80;;;;;24.60;100776.00;;;;2071430;28;20210;-56
2021/06/25 00:41:49;;;;;;;3.40;3.20;;;;;24.60;100784.00;;;;2071037;28;20305;-57
2021/06/25 00:42:50;;;;;;;2.90;2.70;;;;;24.60;100782.00;;;;2071611;28;20210;-57
2021/06/25 00:43:50;;;;;;;2.80;2.60;;;;;24.60;100781.00;;;;2070653;28;20217;-56
2021/06/25 00:44:50;;;;;;;3.70;3.40;;;;;24.60;100774.00;;;;2065207;28;20297;-56
2021/06/25 00:45:51;;;;;;;3.10;2.90;;;;;24.60;100775.00;;;;2066824;28;20215;-57
2021/06/25 00:46:51;;;;;;;3.17;2.97;;;;;24.60;100777.00;;;;2066948;28;20707;-57
2021/06/25 00:47:51;;;;;;;3.20;3.00;;;;;24.60;100775.00;;;;2059606;28;20226;-57
2021/06/25 00:48:52;;;;;;;3.07;2.87;;;;;24.60;100771.00;;;;2063129;28;20846;-57
2021/06/25 00:49:52;;;;;;;2.90;2.70;;;;;24.60;100792.00;;;;2063359;28;20224;-57
2021/06/25 00:50:52;;;;;;;3.67;3.37;;;;;24.60;100768.00;;;;2063377;28;20951;-56
2021/06/25 00:51:53;;;;;;;3.43;3.23;;;;;24.60;100779.00;;;;2062599;28;21002;-57
2021/06/25 00:52:54;;;;;;;3.23;3.03;;;;;24.60;100776.00;;;;2070277;28;20662;-56
2021/06/25 00:53:55;;;;;;;3.20;3.00;;;;;24.60;100773.00;;;;2071449;28;20222;-56
2021/06/25 00:54:55;;;;;;;3.10;2.90;;;;;24.60;100767.00;;;;2071333;28;20222;-56
2021/06/25 00:55:55;;;;;;;3.20;3.00;;;;;24.60;100765.00;;;;2071019;28;20221;-57
2021/06/25 00:56:56;;;;;;;3.17;2.97;;;;;24.60;100773.00;;;;2071286;28;20233;-57
2021/06/25 00:57:56;;;;;;;3.33;3.03;;;;;24.60;100772.00;;;;2064408;28;20216;-57
2021/06/25 00:58:57;;;;;;;3.20;3.00;;;;;24.60;100774.00;;;;2070358;28;20218;-56
2021/06/25 00:59:57;;;;;;;3.00;2.80;;;;;24.60;100777.00;;;;2070386;28;20238;-56
2021/06/25 01:00:57;;;;;;;3.23;3.03;;;;;24.60;100764.00;;;;2065977;28;20214;-56
2021/06/25 01:01:58;;;;;;;3.17;2.97;;;;;24.60;100772.00;;;;2062892;28;20718;-57
2021/06/25 01:02:58;;;;;;;3.23;3.03;;;;;24.60;100777.00;;;;2063105;28;20306;-57
2021/06/25 01:03:58;;;;;;;3.60;3.30;;;;;24.60;100779.00;;;;2065392;28;20248;-57
2021/06/25 01:04:59;;;;;;;3.60;3.40;;;;;24.60;100769.00;;;;2063589;28;20207;-57
2021/06/25 01:05:59;;;;;;;3.30;3.10;;;;;24.60;100780.00;;;;2063271;28;20220;-57
2021/06/25 01:07:00;;;;;;;3.17;2.97;;;;;24.60;100782.00;;;;2063218;28;20649;-57
2021/06/25 01:08:00;;;;;;;3.23;3.03;;;;;24.60;100781.00;;;;2066781;28;20218;-57
2021/06/25 01:09:01;;;;;;;3.50;3.20;;;;;24.60;100777.00;;;;2070249;28;20221;-57
2021/06/25 01:10:02;;;;;;;3.75;3.45;;;;;24.60;100776.00;;;;2067679;28;20219;-56
2021/06/25 01:11:03;;;;;;;3.45;3.25;;;;;24.60;100785.00;;;;2061454;28;20223;-57
2021/06/25 01:12:05;;;;;;;3.47;3.27;;;;;24.60;100777.00;;;;2063509;28;20229;-56
2021/06/25 01:13:05;;;;;;;2.95;2.75;;;;;24.60;100774.00;;;;2071575;28;20226;-56
2021/06/25 01:14:06;;;;;;;3.30;3.10;;;;;24.60;100784.00;;;;2065450;28;20609;-57
2021/06/25 01:15:07;;;;;;;3.43;3.23;;;;;24.60;100775.00;;;;2068104;28;20206;-58
2021/06/25 01:16:07;;;;;;;3.30;3.10;;;;;24.60;100779.00;;;;2071072;28;20293;-56
2021/06/25 01:17:38;;;;;;;3.30;3.10;;;;;24.60;100774.00;;;;2065131;28;20589;-57
2021/06/25 01:18:38;;;;;;;3.60;3.30;;;;;24.60;100775.00;;;;2070539;28;20249;-57
2021/06/25 01:19:38;;;;;;;3.30;3.10;;;;;24.60;100771.00;;;;2070447;28;20923;-57
2021/06/25 01:20:39;;;;;;;3.30;3.10;;;;;24.60;100777.00;;;;2063145;28;20294;-57
2021/06/25 01:21:43;;;;;;;3.30;3.10;;;;;24.60;100774.00;;;;2062740;28;20215;-56
2021/06/25 01:22:43;;;;;;;3.58;3.33;;;;;24.60;100774.00;;;;2070986;28;20218;-57
2021/06/25 01:23:44;;;;;;;3.13;2.93;;;;;24.60;100779.00;;;;2070947;28;20218;-56
2021/06/25 01:24:44;;;;;;;3.30;3.10;;;;;24.60;100776.00;;;;2068383;28;20722;-57
2021/06/25 01:25:44;;;;;;;3.27;3.07;;;;;24.60;100780.00;;;;2066297;28;20707;-58
2021/06/25 01:26:45;;;;;;;3.10;2.90;;;;;24.60;100783.00;;;;2063292;28;20596;-58
2021/06/25 01:27:46;;;;;;;2.90;2.70;;;;;24.60;100781.00;;;;2070116;28;20217;-57
2021/06/25 01:28:47;;;;;;;3.25;3.05;;;;;24.60;100772.00;;;;2071711;28;20211;-57
2021/06/25 01:29:47;;;;;;;3.53;3.33;;;;;24.60;100777.00;;;;2067068;28;20225;-56
2021/06/25 01:30:48;;;;;;;3.40;3.20;;;;;24.60;100780.00;;;;2066957;28;20227;-57
2021/06/25 01:31:48;;;;;;;3.10;2.90;;;;;24.60;100770.00;;;;2070617;28;20214;-63
2021/06/25 01:32:48;;;;;;;3.17;2.97;;;;;24.60;100774.00;;;;2069271;28;20715;-62
2021/06/25 01:33:49;;;;;;;3.60;3.30;;;;;24.60;100774.00;;;;2063368;28;20253;-61
2021/06/25 01:34:49;;;;;;;3.20;3.00;;;;;24.60;100777.00;;;;2062756;28;20206;-58
2021/06/25 01:35:52;;;;;;;3.47;3.27;;;;;24.60;100773.00;;;;2066679;28;20213;-56
2021/06/25 01:36:52;;;;;;;3.30;3.10;;;;;24.60;100778.00;;;;2070857;28;20309;-57
2021/06/25 01:37:53;;;;;;;3.30;3.00;;;;;24.60;100772.00;;;;2068695;28;20244;-57
2021/06/25 01:38:53;;;;;;;3.90;3.60;;;;;24.60;100774.00;;;;2062722;28;20766;-57
2021/06/25 01:39:54;;;;;;;3.00;2.80;;;;;24.60;100775.00;;;;2070853;28;20211;-57
2021/06/25 01:40:54;;;;;;;3.00;2.80;;;;;24.60;100778.00;;;;2070717;28;20615;-56
2021/06/25 01:41:54;;;;;;;3.20;3.00;;;;;24.60;100767.00;;;;2061155;28;20215;-57
2021/06/25 01:42:55;;;;;;;3.30;3.10;;;;;24.60;100765.00;;;;2067218;28;20302;-57
2021/06/25 01:43:55;;;;;;;3.33;3.13;;;;;24.60;100777.00;;;;2065351;28;20215;-57
2021/06/25 01:44:56;;;;;;;3.30;3.10;;;;;24.60;100771.00;;;;2064169;28;20219;-57
2021/06/25 01:45:56;;;;;;;3.67;3.37;;;;;24.60;100776.00;;;;2070784;28;20265;-56
2021/06/25 01:46:56;;;;;;;3.23;3.00;;;;;24.60;100774.00;;;;2062482;28;20222;-57
2021/06/25 01:47:57;;;;;;;3.30;3.10;;;;;24.60;100769.00;;;;2066159;28;20210;-57
2021/06/25 01:48:57;;;;;;;3.57;3.37;;;;;24.60;100767.00;;;;2061836;28;20207;-57
2021/06/25 01:49:57;;;;;;;3.30;3.10;;;;;24.60;100769.00;;;;2071089;28;20226;-57
2021/06/25 01:50:58;;;;;;;3.10;2.90;;;;;24.60;100778.00;;;;2064749;28;20214;-55
2021/06/25 01:51:58;;;;;;;3.27;2.97;;;;;24.60;100763.00;;;;2061403;28;20217;-56
2021/06/25 01:52:59;;;;;;;3.40;3.20;;;;;24.60;100766.00;;;;2063278;28;20222;-55
2021/06/25 01:54:00;;;;;;;3.35;3.15;;;;;24.60;100767.00;;;;2063404;28;20692;-57
2021/06/25 01:55:00;;;;;;;3.03;2.83;;;;;24.60;100758.00;;;;2063168;28;20210;-55
2021/06/25 01:56:02;;;;;;;3.10;2.90;;;;;24.60;100754.00;;;;2068405;28;20210;-56
2021/06/25 01:57:02;;;;;;;3.80;2.90;;;;;24.60;100759.00;;;;2067677;28;20250;-57
2021/06/25 01:58:02;;;;;;;2.87;2.67;;;;;24.60;100756.00;;;;2064329;28;20226;-57
2021/06/25 01:59:03;;;;;;;3.20;3.00;;;;;24.60;100757.00;;;;2069464;28;20206;-57
2021/06/25 02:00:04;;;;;;;3.30;3.10;;;;;24.60;100757.00;;;;2047223;28;20212;-58
2021/06/25 02:01:09;;;;;;;3.50;3.30;;;;;24.60;100753.00;;;;2048765;28;20218;-56
2021/06/25 02:02:10;;;;;;;3.03;2.83;;;;;24.60;100752.00;;;;2068643;28;20578;-58
2021/06/25 02:03:10;;;;;;;3.47;3.27;;;;;24.60;100748.00;;;;2066166;28;20207;-57
2021/06/25 02:04:10;;;;;;;3.30;3.10;;;;;24.60;100752.00;;;;2067016;28;20218;-58
2021/06/25 02:05:12;;;;;;;3.37;3.17;;;;;24.60;100749.00;;;;2063821;28;20218;-56
2021/06/25 02:06:12;;;;;;;3.35;3.15;;;;;24.60;100745.00;;;;2066344;28;20218;-57
2021/06/25 02:07:13;;;;;;;2.90;2.70;;;;;24.60;100754.00;;;;2063294;28;20219;-57
2021/06/25 02:08:13;;;;;;;3.10;2.90;;;;;24.60;100760.00;;;;2063206;28;20219;-56
2021/06/25 02:09:14;;;;;;;3.20;3.00;;;;;24.50;100750.00;;;;2066416;28;20225;-57
2021/06/25 02:10:14;;;;;;;3.23;3.00;;;;;24.60;100759.00;;;;2066066;28;20743;-58
2021/06/25 02:11:17;;;;;;;2.90;2.80;;;;;24.60;100757.00;;;;2068195;28;20219;-57
2021/06/25 02:12:17;;;;;;;3.00;2.80;;;;;24.50;100763.00;;;;2063178;28;20722;-57
2021/06/25 02:13:17;;;;;;;3.53;3.33;;;;;24.60;100753.00;;;;2063310;28;20306;-57
2021/06/25 02:14:20;;;;;;;3.80;3.50;;;;;24.50;100753.00;;;;2063243;28;20885;-57
2021/06/25 02:15:20;;;;;;;3.13;2.92;;;;;24.60;100756.00;;;;2069001;28;20210;-57
2021/06/25 02:16:20;;;;;;;3.10;2.90;;;;;24.50;100757.00;;;;2071049;28;20222;-57
2021/06/25 02:17:21;;;;;;;3.17;2.97;;;;;24.50;100751.00;;;;2071222;28;20249;-55
2021/06/25 02:18:21;;;;;;;3.30;3.10;;;;;24.50;100757.00;;;;2067864;28;20297;-57
2021/06/25 02:19:21;;;;;;;3.10;2.90;;;;;24.50;100750.00;;;;2068698;28;20261;-57
2021/06/25 02:20:22;;;;;;;3.23;3.03;;;;;24.50;100752.00;;;;2068515;28;20229;-57
2021/06/25 02:21:22;;;;;;;3.40;3.20;;;;;24.60;100760.00;;;;2062338;28;20307;-58
2021/06/25 02:22:22;;;;;;;3.10;2.90;;;;;24.50;100752.00;;;;2063071;28;20229;-58
2021/06/25 02:23:23;;;;;;;2.90;2.70;;;;;24.50;100751.00;;;;2063757;28;20242;-57
2021/06/25 02:24:23;;;;;;;3.53;3.20;;;;;24.60;100746.00;;;;2066414;28;20227;-56
2021/06/25 02:25:23;;;;;;;3.10;2.90;;;;;24.50;100752.00;;;;2063135;28;20702;-56
2021/06/25 02:26:24;;;;;;;3.17;2.87;;;;;24.50;100751.00;;;;2063316;28;20223;-57
2021/06/25 02:27:24;;;;;;;3.50;3.20;;;;;24.50;100751.00;;;;2062852;28;20366;-57
2021/06/25 02:28:25;;;;;;;3.13;2.93;;;;;24.50;100747.00;;;;2066738;28;20221;-57
2021/06/25 02:29:25;;;;;;;3.10;2.90;;;;;24.50;100748.00;;;;2071083;28;20222;-57
2021/06/25 02:30:25;;;;;;;3.13;2.93;;;;;24.50;100747.00;;;;2071270;28;20222;-57
2021/06/25 02:31:26;;;;;;;2.90;2.70;;;;;24.50;100750.00;;;;2068926;28;20750;-58
2021/06/25 02:32:26;;;;;;;3.53;3.33;;;;;24.50;100745.00;;;;2062999;28;20218;-57
2021/06/25 02:33:27;;;;;;;3.37;3.17;;;;;24.50;100745.00;;;;2066687;28;20253;-61
2021/06/25 02:34:27;;;;;;;3.40;3.20;;;;;24.50;100752.00;;;;2066539;28;20229;-60
2021/06/25 02:35:27;;;;;;;3.37;3.07;;;;;24.50;100754.00;;;;2063609;28;20215;-57
2021/06/25 02:36:28;;;;;;;3.40;3.13;;;;;24.60;100751.00;;;;2066241;28;20226;-57
2021/06/25 02:37:28;;;;;;;3.50;3.20;;;;;24.50;100751.00;;;;2069697;28;20210;-57
2021/06/25 02:38:28;;;;;;;3.27;3.07;;;;;24.50;100745.00;;;;2067087;28;20202;-57
2021/06/25 02:39:29;;;;;;;3.50;3.10;;;;;24.50;100747.00;;;;2071044;28;20249;-57
2021/06/25 02:40:29;;;;;;;2.90;2.70;;;;;24.50;100748.00;;;;2064226;28;20229;-58
2021/06/25 02:41:30;;;;;;;3.83;3.53;;;;;24.50;100735.00;;;;2062249;28;20215;-55
2021/06/25 02:42:30;;;;;;;2.93;2.70;;;;;24.50;100747.00;;;;2063028;28;20352;-57
2021/06/25 02:43:30;;;;;;;2.97;2.77;;;;;24.50;100745.00;;;;2071183;28;20288;-57
2021/06/25 02:44:31;;;;;;;2.90;2.70;;;;;24.50;100733.00;;;;2069102;28;20210;-57
2021/06/25 02:45:31;;;;;;;3.30;3.10;;;;;24.50;100734.00;;;;2067294;28;20218;-57
2021/06/25 02:46:32;;;;;;;2.90;2.70;;;;;24.50;100738.00;;;;2071109;28;20687;-58
2021/06/25 02:47:34;;;;;;;3.23;2.80;;;;;24.50;100739.00;;;;2071017;28;20222;-57
2021/06/25 02:48:34;;;;;;;2.70;2.50;;;;;24.50;100735.00;;;;2063440;28;20203;-56
2021/06/25 02:49:34;;;;;;;2.57;2.40;;;;;24.50;100734.00;;;;2066539;28;20305;-58
2021/06/25 02:50:35;;;;;;;3.37;3.17;;;;;24.50;100739.00;;;;2066591;28;20206;-57
2021/06/25 02:51:35;;;;;;;2.90;2.70;;;;;24.50;100744.00;;;;2068616;28;20214;-56
2021/06/25 02:52:37;;;;;;;3.40;3.20;;;;;24.50;100744.00;;;;2063644;28;20282;-57
2021/06/25 02:53:37;;;;;;;2.70;2.60;;;;;24.50;100742.00;;;;2062852;28;20272;-57
2021/06/25 02:54:38;;;;;;;3.37;3.17;;;;;24.50;100745.00;;;;2067513;28;20738;-58
2021/06/25 02:55:50;;;;;;;3.30;3.10;;;;;24.50;100741.00;;;;2067245;28;20215;-56
2021/06/25 02:56:50;;;;;;;3.10;2.90;;;;;24.50;100737.00;;;;2063929;28;20229;-57
2021/06/25 02:57:51;;;;;;;3.13;2.93;;;;;24.50;100737.00;;;;2062499;28;20246;-57
2021/06/25 02:58:51;;;;;;;3.07;2.83;;;;;24.50;100745.00;;;;2066079;28;20218;-58
2021/06/25 02:59:51;;;;;;;3.40;3.20;;;;;24.50;100737.00;;;;2070027;28;20729;-57
2021/06/25 03:00:55;;;;;;;3.00;2.80;;;;;24.50;100736.00;;;;2071121;28;20683;-58
2021/06/25 03:01:55;;;;;;;3.20;3.00;;;;;24.50;100738.00;;;;2070529;28;20214;-55
2021/06/25 03:02:55;;;;;;;2.97;2.77;;;;;24.50;100741.00;;;;2071039;28;20280;-56
2021/06/25 03:03:56;;;;;;;3.07;2.87;;;;;24.50;100745.00;;;;2070977;28;20699;-57
2021/06/25 03:04:56;;;;;;;2.97;2.77;;;;;24.50;100735.00;;;;2070371;28;20643;-57
2021/06/25 03:05:56;;;;;;;3.20;3.00;;;;;24.50;100732.00;;;;2070908;28;20636;-56
2021/06/25 03:06:57;;;;;;;3.30;3.10;;;;;24.50;100735.00;;;;2070852;28;20214;-56
2021/06/25 03:07:57;;;;;;;2.67;2.47;;;;;24.50;100733.00;;;;2066175;28;20675;-57
2021/06/25 03:08:57;;;;;;;2.93;2.73;;;;;24.50;100735.00;;;;2070080;28;20236;-57
2021/06/25 03:09:58;;;;;;;3.17;2.97;;;;;24.50;100729.00;;;;2062838;28;20215;-57
2021/06/25 03:11:00;;;;;;;3.13;2.93;;;;;24.50;100728.00;;;;2066658;28;20214;-56
2021/06/25 03:12:00;;;;;;;3.22;3.03;;;;;24.50;100733.00;;;;2064091;28;20629;-57
2021/06/25 03:13:00;;;;;;;3.00;2.80;;;;;24.50;100727.00;;;;2066992;28;20219;-54
2021/06/25 03:14:01;;;;;;;3.17;2.90;;;;;24.50;100728.00;;;;2068899;28;20301;-56
2021/06/25 03:15:02;;;;;;;3.00;2.80;;;;;24.50;100731.00;;;;2065368;28;20222;-56
2021/06/25 03:16:03;;;;;;;3.28;3.08;;;;;24.50;100733.00;;;;2064204;28;20296;-59
2021/06/25 03:17:03;;;;;;;3.13;2.93;;;;;24.50;100740.00;;;;2065703;28;20628;-58
2021/06/25 03:18:04;;;;;;;2.90;2.70;;;;;24.50;100733.00;;;;2066751;28;20289;-59
2021/06/25 03:19:04;;;;;;;3.37;3.17;;;;;24.50;100740.00;;;;2068139;28;20272;-59
2021/06/25 03:20:05;;;;;;;3.03;2.83;;;;;24.50;100740.00;;;;2068285;28;20208;-55
2021/06/25 03:21:05;;;;;;;2.93;2.73;;;;;24.50;100743.00;;;;2063014;28;20223;-57
2021/06/25 03:22:06;;;;;;;3.07;2.87;;;;;24.50;100751.00;;;;2068756;28;20217;-56
2021/06/25 03:23:06;;;;;;;3.50;3.20;;;;;24.50;100743.00;;;;2065041;28;20265;-57
2021/06/25 03:24:08;;;;;;;3.20;3.00;;;;;24.50;100748.00;;;;2067037;28;20215;-57
2021/06/25 03:25:09;;;;;;;3.05;2.85;;;;;24.50;100746.00;;;;2064494;28;20214;-57
2021/06/25 03:26:09;;;;;;;3.23;3.03;;;;;24.50;100746.00;;;;2066847;28;20636;-56
2021/06/25 03:27:09;;;;;;;3.53;3.13;;;;;24.50;100743.00;;;;2066295;28;20454;-59
2021/06/25 03:28:10;;;;;;;3.00;2.80;;;;;24.50;100742.00;;;;2071909;28;20217;-58
2021/06/25 03:29:10;;;;;;;3.10;2.90;;;;;24.50;100739.00;;;;2065485;28;20696;-57
2021/06/25 03:30:11;;;;;;;2.50;2.40;;;;;24.50;100740.00;;;;2072349;28;20305;-57
2021/06/25 03:31:11;;;;;;;3.10;2.90;;;;;24.50;100741.00;;;;2071637;28;20217;-57
2021/06/25 03:32:11;;;;;;;2.83;2.63;;;;;24.50;100727.00;;;;2065632;28;20876;-57
2021/06/25 03:33:12;;;;;;;3.23;3.03;;;;;24.50;100738.00;;;;2070610;28;20576;-56
2021/06/25 03:34:12;;;;;;;3.30;3.10;;;;;24.50;100735.00;;;;2067738;28;20900;-57
2021/06/25 03:35:12;;;;;;;3.47;3.27;;;;;24.50;100738.00;;;;2072546;28;20301;-58
2021/06/25 03:36:13;;;;;;;3.20;3.00;;;;;24.50;100738.00;;;;2071304;28;20264;-57
2021/06/25 03:37:13;;;;;;;3.20;3.00;;;;;24.50;100746.00;;;;2072344;28;20591;-56
2021/06/25 03:38:14;;;;;;;3.10;2.90;;;;;24.50;100733.00;;;;2072484;28;20276;-56
2021/06/25 03:39:14;;;;;;;3.37;3.17;;;;;24.50;100737.00;;;;2071856;28;20615;-57
2021/06/25 03:40:15;;;;;;;3.00;2.80;;;;;24.50;100742.00;;;;2069835;28;20214;-55
2021/06/25 03:41:15;;;;;;;2.97;2.77;;;;;24.50;100744.00;;;;2070746;28;20952;-56
2021/06/25 03:42:16;;;;;;;2.90;2.70;;;;;24.50;100742.00;;;;2067985;28;20888;-56
2021/06/25 03:43:16;;;;;;;3.27;2.97;;;;;24.50;100741.00;;;;2066732;28;20305;-56
2021/06/25 03:44:16;;;;;;;3.30;3.10;;;;;24.50;100743.00;;;;2069850;28;20618;-57
2021/06/25 03:45:17;;;;;;;2.80;2.60;;;;;24.50;100740.00;;;;2068591;28;20302;-57
2021/06/25 03:46:19;;;;;;;3.30;3.10;;;;;24.50;100740.00;;;;2066986;28;20218;-57
2021/06/25 03:47:20;;;;;;;3.15;2.95;;;;;24.50;100741.00;;;;2064181;28;20211;-57
2021/06/25 03:48:20;;;;;;;3.20;3.00;;;;;24.50;100740.00;;;;2068100;28;20697;-57
2021/06/25 03:49:20;;;;;;;3.53;3.33;;;;;24.50;100746.00;;;;2064073;28;20534;-57
2021/06/25 03:50:21;;;;;;;3.20;3.00;;;;;24.50;100744.00;;;;2066988;28;20203;-58
2021/06/25 03:51:21;;;;;;;3.23;3.03;;;;;24.50;100745.00;;;;2064559;28;20221;-58
2021/06/25 03:52:21;;;;;;;3.10;2.90;;;;;24.50;100748.00;;;;2071670;28;20221;-57
2021/06/25 03:53:22;;;;;;;3.37;3.17;;;;;24.50;100746.00;;;;2068985;28;20210;-57
2021/06/25 03:54:22;;;;;;;3.17;2.97;;;;;24.50;100749.00;;;;2071007;28;20213;-57
2021/06/25 03:55:22;;;;;;;3.40;3.20;;;;;24.50;100746.00;;;;2068164;28;20643;-57
2021/06/25 03:56:23;;;;;;;2.93;2.73;;;;;24.50;100752.00;;;;2060834;28;20218;-57
2021/06/25 03:57:23;;;;;;;3.17;2.97;;;;;24.40;100743.00;;;;2080972;28;20213;-57
2021/06/25 03:58:23;;;;;;;3.23;3.00;;;;;24.50;100742.00;;;;2083952;28;20854;-57
2021/06/25 03:59:24;;;;;;;3.33;3.13;;;;;24.50;100747.00;;;;2064604;28;20221;-56
2021/06/25 04:00:24;;;;;;;3.17;2.97;;;;;24.50;100744.00;;;;2067292;28;20310;-56
2021/06/25 04:01:25;;;;;;;2.77;2.53;;;;;24.50;100749.00;;;;2063300;28;20253;-56
2021/06/25 04:02:25;;;;;;;3.63;3.33;;;;;24.50;100742.00;;;;2063841;28;20214;-56
2021/06/25 04:03:25;;;;;;;3.13;2.93;;;;;24.50;100745.00;;;;2063526;28;20238;-57
2021/06/25 04:04:25;;;;;;;2.90;2.70;;;;;24.50;100750.00;;;;2062836;28;20215;-57
2021/06/25 04:05:26;;;;;;;3.20;3.00;;;;;24.40;100749.00;;;;2066308;28;20214;-57
2021/06/25 04:06:26;;;;;;;3.30;3.10;;;;;24.50;100741.00;;;;2065875;28;20237;-57
2021/06/25 04:07:27;;;;;;;3.30;3.10;;;;;24.50;100738.00;;;;2065692;28;20238;-57
2021/06/25 04:08:29;;;;;;;2.80;2.60;;;;;24.50;100746.00;;;;2063944;28;20269;-57
2021/06/25 04:09:30;;;;;;;3.30;3.00;;;;;24.50;100749.00;;;;2063718;28;20746;-57
2021/06/25 04:10:31;;;;;;;3.10;2.90;;;;;24.50;100748.00;;;;2071078;28;20277;-57
2021/06/25 04:11:31;;;;;;;3.10;2.90;;;;;24.50;100740.00;;;;2066482;28;20215;-57
2021/06/25 04:12:32;;;;;;;2.93;2.73;;;;;24.50;100742.00;;;;2063644;28;20218;-57
2021/06/25 04:13:35;;;;;;;3.07;2.87;;;;;24.50;100742.00;;;;2065758;28;20688;-57
2021/06/25 04:14:35;;;;;;;2.80;2.60;;;;;24.50;100742.00;;;;2071812;28;20294;-56
2021/06/25 04:15:35;;;;;;;3.40;3.20;;;;;24.40;100748.00;;;;2071577;28;20636;-56
2021/06/25 04:16:36;;;;;;;2.87;2.67;;;;;24.50;100747.00;;;;2067633;28;20706;-57
2021/06/25 04:17:37;;;;;;;3.50;3.20;;;;;24.50;100742.00;;;;2063290;28;20321;-56
2021/06/25 04:18:37;;;;;;;3.40;3.20;;;;;24.50;100744.00;;;;2063709;28;20238;-57
2021/06/25 04:19:37;;;;;;;3.03;2.83;;;;;24.50;100743.00;;;;2060137;28;20223;-57
2021/06/25 04:20:38;;;;;;;3.00;2.80;;;;;24.40;100738.00;;;;2067116;28;20222;-58
2021/06/25 04:21:38;;;;;;;3.03;2.83;;;;;24.40;100742.00;;;;2062435;28;20226;-57
2021/06/25 04:22:38;;;;;;;2.97;2.77;;;;;24.50;100744.00;;;;2067432;28;20213;-55
2021/06/25 04:23:39;;;;;;;3.20;3.00;;;;;24.50;100741.00;;;;2067120;28;20237;-55
2021/06/25 04:24:39;;;;;;;3.20;3.00;;;;;24.50;100744.00;;;;2064985;28;20242;-56
2021/06/25 04:25:39;;;;;;;3.13;2.93;;;;;24.50;100734.00;;;;2071752;28;20745;-57
2021/06/25 04:26:40;;;;;;;3.30;3.10;;;;;24.50;100745.00;;;;2071201;28;20881;-57
2021/06/25 04:27:40;;;;;;;2.90;2.70;;;;;24.50;100743.00;;;;2068103;28;20218;-57
2021/06/25 04:28:42;;;;;;;2.93;2.73;;;;;24.50;100748.00;;;;2067259;28;20258;-55
2021/06/25 04:29:43;;;;;;;3.30;3.10;;;;;24.50;100749.00;;;;2067752;28;20237;-57
2021/06/25 04:30:44;;;;;;;3.20;3.00;;;;;24.40;100742.00;;;;2065809;28;20214;-61
2021/06/25 04:31:53;;;;;;;2.87;2.70;;;;;24.50;100749.00;;;;2065091;28;20696;-58
2021/06/25 04:32:54;;;;;;;3.13;2.92;;;;;24.50;100748.00;;;;2071532;28;20257;-57
2021/06/25 04:33:55;;;;;;;3.10;2.90;;;;;24.50;100745.00;;;;2067799;28;20229;-57
2021/06/25 04:34:55;;;;;;;3.13;2.83;;;;;24.50;100751.00;;;;2067358;28;20232;-56
2021/06/25 04:35:55;;;;;;;2.90;2.70;;;;;24.50;100737.00;;;;2065677;28;20493;-56
2021/06/25 04:36:56;;;;;;;3.00;2.80;;;;;24.50;100746.00;;;;2065136;28;20229;-57
2021/06/25 04:37:56;;;;;;;2.80;2.60;;;;;24.50;100746.00;;;;2067895;28;20803;-57
2021/06/25 04:38:57;;;;;;;3.00;2.80;;;;;24.40;100748.00;;;;2064024;28;20798;-57
2021/06/25 04:39:57;;;;;;;3.10;2.90;;;;;24.40;100751.00;;;;2063797;28;20210;-56
2021/06/25 04:40:57;;;;;;;2.80;2.60;;;;;24.40;100750.00;;;;2065159;28;20258;-57
2021/06/25 04:41:58;;;;;;;2.73;2.63;;;;;24.40;100745.00;;;;2071585;28;20218;-57
2021/06/25 04:42:58;;;;;;;3.40;3.20;;;;;24.50;100746.00;;;;2069479;28;20301;-57
2021/06/25 04:43:58;;;;;;;2.50;2.40;;;;;24.50;100751.00;;;;2070118;28;20214;-58
2021/06/25 04:44:59;;;;;;;3.07;2.87;;;;;24.50;100751.00;;;;2071214;28;20228;-57
2021/06/25 04:45:59;;;;;;;3.00;2.80;;;;;24.50;100752.00;;;;2067839;28;20219;-56
2021/06/25 04:46:59;;;;;;;3.27;3.07;;;;;24.50;100743.00;;;;2067379;28;20612;-57
2021/06/25 04:48:00;;;;;;;3.33;3.13;;;;;24.50;100746.00;;;;2062964;28;20253;-57
2021/06/25 04:49:00;;;;;;;2.40;2.30;;;;;24.50;100749.00;;;;2065467;28;20259;-57
2021/06/25 04:50:02;;;;;;;3.30;3.07;;;;;24.40;100743.00;;;;2066699;28;20221;-57
2021/06/25 04:51:03;;;;;;;3.20;3.00;;;;;24.50;100748.00;;;;2062869;28;20250;-57
2021/06/25 04:52:04;;;;;;;3.57;3.27;;;;;24.50;100742.00;;;;2064337;28;20214;-55
2021/06/25 04:53:04;;;;;;;3.00;2.80;;;;;24.30;100742.00;;;;2066793;28;21028;-57
2021/06/25 04:54:05;;;;;;;3.30;3.10;;;;;24.50;100734.00;;;;2060483;28;20465;-56
2021/06/25 04:55:06;;;;;;;2.90;2.60;;;;;24.50;100733.00;;;;2087424;28;20216;-56
2021/06/25 04:56:07;;;;;;;2.92;2.72;;;;;24.50;100735.00;;;;2082350;28;20245;-57
2021/06/25 04:57:07;;;;;;;2.90;2.70;;;;;24.50;100729.00;;;;2068111;28;20284;-58
2021/06/25 04:58:13;;;;;;;2.90;2.70;;;;;24.50;100731.00;;;;2067946;28;20214;-56
2021/06/25 04:59:13;;;;;;;3.25;3.05;;;;;24.40;100733.00;;;;2065755;28;20841;-57
2021/06/25 05:00:14;;;;;;;2.80;2.60;;;;;24.50;100727.00;;;;2067119;28;20269;-56